Time;durP1;ratioP1;P1;durP2;ratioP2;P2;SDS_P1;SDS_P2;PMS_P1;PMS_P2;Temp;Humidity;BMP_temperature;BMP_pressure;BME280_temperature;BME280_humidity;BME280_pressure;Samples;Min_cycle;Max_cycle;Signal;HPM_P1;HPM_P2
2022/06/29 00:00:08;;;;;;;7.95;3.03;;;22.40;84.10;;;;;;5073978;28;20468;-64
2022/06/29 00:02:35;;;;;;;6.18;2.75;;;22.30;84.10;;;;;;5071035;28;20056;-65
2022/06/29 00:05:03;;;;;;;6.85;2.90;;;22.40;84.10;;;;;;5074643;28;20098;-64
2022/06/29 00:07:28;;;;;;;4.97;2.53;;;22.30;84.10;;;;;;5067961;28;20029;-64
2022/06/29 00:09:54;;;;;;;8.82;2.83;;;22.30;84.80;;;;;;5065072;28;20028;-65
2022/06/29 00:12:20;;;;;;;9.52;3.15;;;22.30;84.20;;;;;;5070275;28;20040;-65
2022/06/29 00:14:46;;;;;;;5.07;2.72;;;22.30;84.20;;;;;;5071328;28;20028;-65
2022/06/29 00:17:12;;;;;;;4.28;2.70;;;22.20;84.30;;;;;;5055026;28;20036;-64
2022/06/29 00:19:41;;;;;;;6.25;2.95;;;22.20;84.30;;;;;;5059934;28;20312;-65
2022/06/29 00:22:10;;;;;;;6.43;3.00;;;22.20;84.30;;;;;;5072121;28;20032;-65
2022/06/29 00:24:38;;;;;;;5.88;2.78;;;22.20;84.40;;;;;;5072466;28;20473;-65
2022/06/29 00:27:05;;;;;;;9.00;3.25;;;22.10;84.40;;;;;;5073102;28;20032;-65
2022/06/29 00:29:31;;;;;;;7.45;2.88;;;22.10;84.50;;;;;;5061969;28;20094;-64
2022/06/29 00:31:56;;;;;;;3.55;2.33;;;22.10;84.50;;;;;;5066261;28;20388;-65
2022/06/29 00:34:22;;;;;;;6.07;2.70;;;22.10;84.60;;;;;;5053649;28;20021;-64
2022/06/29 00:36:48;;;;;;;4.93;2.70;;;22.00;84.60;;;;;;5068321;28;20039;-65
2022/06/29 00:39:14;;;;;;;5.05;2.80;;;22.10;84.70;;;;;;5066042;28;20040;-65
2022/06/29 00:41:41;;;;;;;4.38;2.92;;;22.10;84.80;;;;;;5068206;28;20045;-65
2022/06/29 00:44:09;;;;;;;5.68;2.72;;;22.00;84.90;;;;;;5072821;28;20024;-64
2022/06/29 00:46:40;;;;;;;5.05;2.70;;;22.00;85.00;;;;;;5072368;28;20737;-64
2022/06/29 00:49:05;;;;;;;7.15;2.55;;;22.00;85.10;;;;;;5070017;28;20048;-65
2022/06/29 00:51:35;;;;;;;5.72;2.88;;;21.90;85.10;;;;;;5063760;28;20479;-64
2022/06/29 00:54:03;;;;;;;5.32;2.78;;;21.90;85.20;;;;;;5057393;28;20100;-65
2022/06/29 00:56:32;;;;;;;5.35;2.70;;;21.90;85.10;;;;;;5059552;28;20036;-64
2022/06/29 00:59:01;;;;;;;8.15;2.95;;;21.80;85.00;;;;;;5069612;28;20050;-65
2022/06/29 01:01:29;;;;;;;4.78;2.70;;;21.80;84.90;;;;;;5065196;28;20040;-65
2022/06/29 01:03:55;;;;;;;6.15;3.08;;;21.80;84.90;;;;;;5069830;28;20032;-65
2022/06/29 01:06:21;;;;;;;5.65;3.25;;;21.80;85.50;;;;;;5073283;28;20527;-65
2022/06/29 01:08:50;;;;;;;11.35;3.45;;;21.70;84.90;;;;;;5059096;28;20052;-65
2022/06/29 01:11:16;;;;;;;4.65;2.88;;;21.70;84.90;;;;;;5072284;28;20036;-64
2022/06/29 01:13:45;;;;;;;9.55;3.17;;;21.70;85.00;;;;;;5072330;28;20082;-65
2022/06/29 01:16:10;;;;;;;8.43;3.35;;;21.70;85.10;;;;;;5066408;28;20033;-65
2022/06/29 01:18:37;;;;;;;8.55;3.50;;;21.70;85.20;;;;;;5071836;28;20040;-65
2022/06/29 01:21:08;;;;;;;6.65;3.63;;;21.60;85.20;;;;;;5064012;28;20037;-64
2022/06/29 01:23:34;;;;;;;7.60;3.60;;;21.60;85.40;;;;;;5063256;28;20037;-65
2022/06/29 01:26:17;;;;;;;8.95;3.30;;;21.60;85.40;;;;;;5060758;28;20085;-65
2022/06/29 01:28:46;;;;;;;;;;;21.50;85.40;;;;;;5062689;28;20032;-65
2022/06/29 01:31:16;;;;;;;6.03;3.67;;;21.50;85.30;;;;;;5062212;28;19913;-65
2022/06/29 01:33:42;;;;;;;7.50;3.35;;;21.50;85.40;;;;;;5067106;28;20028;-65
2022/06/29 01:36:08;;;;;;;6.07;3.58;;;21.40;85.50;;;;;;5063034;28;20115;-65
2022/06/29 01:38:36;;;;;;;6.07;3.55;;;21.40;85.60;;;;;;5065444;28;20021;-64
2022/06/29 01:41:08;;;;;;;7.82;3.55;;;21.40;85.70;;;;;;5063284;28;20024;-64
2022/06/29 01:43:34;;;;;;;6.68;3.55;;;21.40;85.80;;;;;;5060317;28;20090;-65
2022/06/29 01:46:00;;;;;;;5.43;3.63;;;21.40;86.40;;;;;;5071059;28;20033;-64
2022/06/29 01:48:26;;;;;;;4.70;3.60;;;21.30;85.90;;;;;;5070467;28;20031;-64
2022/06/29 01:50:51;;;;;;;4.82;3.05;;;21.30;85.90;;;;;;5072082;28;20029;-65
2022/06/29 01:53:17;;;;;;;8.00;3.63;;;21.30;85.90;;;;;;5071330;28;20116;-64
2022/06/29 01:55:46;;;;;;;6.43;3.65;;;21.30;85.90;;;;;;5072918;28;20033;-65
2022/06/29 01:58:13;;;;;;;9.07;3.65;;;21.20;85.90;;;;;;5064300;28;20370;-64
2022/06/29 02:00:38;;;;;;;7.15;3.53;;;21.20;86.00;;;;;;5060929;28;20125;-65
2022/06/29 02:03:05;;;;;;;8.07;4.70;;;21.20;86.00;;;;;;5065973;28;20036;-65
2022/06/29 02:05:30;;;;;;;12.82;4.03;;;21.20;86.00;;;;;;5071043;28;20048;-65
2022/06/29 02:07:56;;;;;;;8.15;3.90;;;21.20;86.10;;;;;;5070515;28;20384;-65
2022/06/29 02:10:22;;;;;;;8.73;3.60;;;21.20;86.70;;;;;;5059636;28;20032;-64
2022/06/29 02:12:48;;;;;;;6.07;3.50;;;21.20;86.10;;;;;;5070738;28;20029;-65
2022/06/29 02:15:17;;;;;;;6.00;3.83;;;21.20;86.10;;;;;;5065101;28;20037;-65
2022/06/29 02:17:43;;;;;;;6.30;3.42;;;21.10;86.10;;;;;;5064874;28;20114;-65
2022/06/29 02:20:11;;;;;;;10.55;3.95;;;21.10;86.10;;;;;;5071444;28;20059;-64
2022/06/29 02:22:40;;;;;;;6.85;3.58;;;21.10;86.20;;;;;;5071159;28;20411;-65
2022/06/29 02:25:07;;;;;;;6.75;3.45;;;21.10;86.20;;;;;;5056181;28;20128;-65
2022/06/29 02:27:32;;;;;;;6.75;3.80;;;21.10;86.10;;;;;;5051753;28;20037;-64
2022/06/29 02:29:58;;;;;;;6.32;3.90;;;21.10;86.10;;;;;;5070527;28;20020;-65
2022/06/29 02:35:09;;;;;;;6.43;3.80;;;21.00;86.00;;;;;;5064381;28;20028;-65
2022/06/29 02:37:34;;;;;;;7.45;3.92;;;21.00;86.00;;;;;;5069381;28;20043;-65
2022/06/29 02:40:00;;;;;;;6.60;4.25;;;21.00;86.00;;;;;;5063654;28;20020;-65
2022/06/29 02:42:27;;;;;;;8.75;4.90;;;21.00;86.10;;;;;;5070648;28;20403;-65
2022/06/29 02:44:53;;;;;;;7.93;4.38;;;21.00;86.10;;;;;;5069583;28;20108;-65
2022/06/29 02:47:21;;;;;;;13.90;4.80;;;21.00;86.00;;;;;;5070272;28;20141;-65
2022/06/29 02:49:47;;;;;;;10.05;4.88;;;20.90;86.00;;;;;;5065532;28;20066;-65
2022/06/29 02:52:12;;;;;;;9.70;5.10;;;20.90;86.00;;;;;;5071267;28;20419;-65
2022/06/29 02:54:41;;;;;;;9.30;4.88;;;21.00;86.00;;;;;;5070322;28;20116;-65
2022/06/29 02:57:06;;;;;;;6.93;4.80;;;20.90;85.90;;;;;;5070449;28;20392;-66
2022/06/29 02:59:32;;;;;;;9.98;5.30;;;21.00;86.00;;;;;;5070466;28;20029;-65
2022/06/29 03:01:58;;;;;;;11.70;5.05;;;21.00;86.00;;;;;;5069985;28;20438;-66
2022/06/29 03:04:23;;;;;;;7.82;4.90;;;20.90;85.90;;;;;;5071149;28;20025;-65
2022/06/29 03:06:49;;;;;;;8.85;4.97;;;20.90;85.80;;;;;;5068065;28;20041;-66
2022/06/29 03:09:15;;;;;;;11.00;5.22;;;20.90;86.40;;;;;;5069319;28;20032;-66
2022/06/29 03:11:40;;;;;;;10.60;5.35;;;20.90;85.80;;;;;;5071585;28;20028;-65
2022/06/29 03:14:09;;;;;;;8.43;4.97;;;20.90;85.90;;;;;;5071872;28;20081;-66
2022/06/29 03:16:35;;;;;;;9.60;5.57;;;20.90;86.40;;;;;;5069349;28;20127;-65
2022/06/29 03:19:00;;;;;;;9.40;5.20;;;20.90;85.70;;;;;;5069221;28;20116;-65
2022/06/29 03:21:26;;;;;;;7.13;5.07;;;20.90;85.70;;;;;;5070258;28;20029;-65
2022/06/29 03:23:52;;;;;;;9.02;5.28;;;20.90;85.60;;;;;;5059735;28;20059;-65
2022/06/29 03:26:18;;;;;;;8.93;5.00;;;20.90;85.60;;;;;;5068511;28;20468;-65
2022/06/29 03:28:44;;;;;;;12.95;5.50;;;20.90;85.50;;;;;;5074288;28;20028;-66
2022/06/29 03:31:09;;;;;;;7.03;4.90;;;20.80;85.50;;;;;;5074407;28;20550;-65
2022/06/29 03:33:35;;;;;;;8.85;5.10;;;20.90;85.50;;;;;;5066391;28;20098;-65
2022/06/29 03:36:01;;;;;;;7.47;4.90;;;20.80;85.50;;;;;;5068392;28;20480;-65
2022/06/29 03:38:26;;;;;;;8.70;6.25;;;20.80;85.50;;;;;;5065145;28;20032;-65
2022/06/29 03:40:52;;;;;;;8.80;4.75;;;20.90;85.60;;;;;;5061700;28;20078;-66
2022/06/29 03:43:18;;;;;;;6.43;4.88;;;20.80;85.60;;;;;;5064932;28;20063;-66
2022/06/29 03:45:44;;;;;;;7.80;5.03;;;20.80;85.60;;;;;;5068219;28;20056;-66
2022/06/29 03:48:15;;;;;;;11.43;5.57;;;20.80;85.60;;;;;;5066073;28;20028;-66
2022/06/29 03:50:41;;;;;;;9.25;4.95;;;20.80;85.70;;;;;;5064894;28;20098;-66
2022/06/29 03:53:07;;;;;;;9.52;4.32;;;20.80;85.70;;;;;;5071283;28;20033;-66
2022/06/29 03:55:33;;;;;;;8.77;5.03;;;20.80;85.70;;;;;;5065651;28;20540;-66
2022/06/29 03:57:58;;;;;;;8.00;4.88;;;20.80;85.80;;;;;;5074326;28;20029;-66
2022/06/29 04:00:24;;;;;;;9.10;5.18;;;20.70;85.80;;;;;;5070465;28;20056;-66
2022/06/29 04:02:50;;;;;;;5.90;4.53;;;20.80;86.00;;;;;;5072834;28;20036;-66
2022/06/29 04:05:15;;;;;;;11.65;4.82;;;20.70;85.90;;;;;;5065970;28;20062;-65
2022/06/29 04:07:42;;;;;;;8.90;5.03;;;20.70;85.80;;;;;;5074793;28;20032;-66
2022/06/29 04:10:08;;;;;;;11.60;5.45;;;20.70;85.80;;;;;;5071102;28;20078;-66
2022/06/29 04:12:36;;;;;;;10.85;5.47;;;20.70;85.80;;;;;;5063191;28;20549;-65
2022/06/29 04:15:04;;;;;;;9.00;5.43;;;20.60;85.70;;;;;;5074731;28;20029;-65
2022/06/29 04:17:30;;;;;;;9.40;5.18;;;20.60;85.70;;;;;;5071768;28;20056;-65
2022/06/29 04:19:56;;;;;;;7.07;5.10;;;20.60;85.70;;;;;;5054316;28;20021;-67
2022/06/29 04:22:22;;;;;;;7.43;4.97;;;20.60;85.80;;;;;;5070259;28;20480;-63
2022/06/29 04:24:48;;;;;;;9.13;4.57;;;20.60;85.70;;;;;;5073925;28;20040;-66
2022/06/29 04:27:14;;;;;;;10.48;5.05;;;20.60;85.70;;;;;;5073979;28;20059;-66
2022/06/29 04:29:40;;;;;;;11.23;6.10;;;20.60;85.80;;;;;;5073112;28;20464;-66
2022/06/29 04:32:06;;;;;;;10.30;4.65;;;20.60;85.70;;;;;;5074714;28;20028;-66
2022/06/29 04:34:32;;;;;;;7.00;4.57;;;20.60;85.70;;;;;;5061831;28;20109;-66
2022/06/29 04:36:57;;;;;;;8.38;4.30;;;20.60;85.70;;;;;;5074413;28;20486;-66
2022/06/29 04:39:23;;;;;;;8.98;4.38;;;20.60;85.70;;;;;;5074027;28;20031;-65
2022/06/29 04:41:52;;;;;;;7.60;3.90;;;20.60;85.70;;;;;;5067056;28;20067;-65
2022/06/29 04:44:17;;;;;;;6.30;4.00;;;20.60;85.70;;;;;;5059413;28;20032;-66
2022/06/29 04:46:43;;;;;;;7.93;4.30;;;20.60;85.80;;;;;;5068284;28;20024;-66
2022/06/29 04:49:10;;;;;;;10.45;4.53;;;20.60;85.80;;;;;;5072731;28;20387;-66
2022/06/29 04:51:35;;;;;;;7.38;4.70;;;20.60;85.90;;;;;;5074005;28;20029;-66
2022/06/29 04:54:02;;;;;;;8.30;5.13;;;20.60;85.90;;;;;;5072613;28;20029;-67
2022/06/29 04:56:35;;;;;;;8.63;4.57;;;20.60;85.80;;;;;;5065534;28;20078;-66
2022/06/29 04:59:01;;;;;;;;;;;20.60;86.10;;;;;;5069209;28;20029;-66
2022/06/29 05:01:30;;;;;;;7.55;4.10;;;20.60;85.90;;;;;;5065499;28;19916;-66
2022/06/29 05:03:59;;;;;;;7.18;4.18;;;20.70;86.00;;;;;;5067730;28;20383;-66
2022/06/29 05:06:25;;;;;;;10.20;4.30;;;20.60;86.10;;;;;;5068883;28;20519;-66
2022/06/29 05:08:51;;;;;;;6.63;4.47;;;20.60;86.20;;;;;;5063368;28;20099;-66
2022/06/29 05:11:18;;;;;;;7.70;4.38;;;20.60;86.10;;;;;;5070171;28;20025;-66
2022/06/29 05:13:50;;;;;;;5.50;3.80;;;20.70;86.00;;;;;;5065808;28;20373;-66
2022/06/29 05:16:16;;;;;;;5.15;3.70;;;20.70;86.00;;;;;;5066571;28;20064;-67
2022/06/29 05:18:41;;;;;;;13.20;4.38;;;20.70;85.90;;;;;;5072757;28;20064;-66
2022/06/29 05:21:09;;;;;;;6.70;3.80;;;20.70;85.90;;;;;;5061969;28;20024;-67
2022/06/29 05:23:34;;;;;;;5.72;3.65;;;20.80;86.00;;;;;;5059725;28;20044;-66
2022/06/29 05:26:00;;;;;;;7.00;3.65;;;20.80;86.00;;;;;;5066944;28;20095;-64
2022/06/29 05:28:26;;;;;;;6.80;3.80;;;20.80;85.90;;;;;;5064647;28;20025;-65
2022/06/29 05:30:52;;;;;;;5.72;3.72;;;20.80;85.70;;;;;;5070017;28;20039;-64
2022/06/29 05:33:19;;;;;;;8.13;4.20;;;20.90;85.60;;;;;;5060415;28;20028;-64
2022/06/29 05:35:45;;;;;;;6.03;3.95;;;20.90;85.70;;;;;;5062223;28;20020;-64
2022/06/29 05:38:11;;;;;;;7.50;4.32;;;20.90;85.70;;;;;;5067481;28;20387;-64
2022/06/29 05:40:37;;;;;;;9.40;4.15;;;20.90;85.60;;;;;;5065923;28;20020;-64
2022/06/29 05:43:09;;;;;;;4.38;3.45;;;21.00;85.60;;;;;;5068268;28;20107;-63
2022/06/29 05:45:35;;;;;;;8.38;4.30;;;21.00;85.40;;;;;;5066084;28;20036;-64
2022/06/29 05:48:00;;;;;;;5.18;3.85;;;21.00;85.30;;;;;;5068842;28;20036;-63
2022/06/29 05:50:26;;;;;;;6.68;3.65;;;21.00;85.50;;;;;;5067504;28;20056;-63
2022/06/29 05:52:52;;;;;;;8.43;3.65;;;21.00;85.40;;;;;;5061293;28;20159;-63
2022/06/29 05:55:18;;;;;;;11.05;3.45;;;21.00;85.20;;;;;;5067288;28;20388;-64
2022/06/29 05:57:43;;;;;;;9.70;3.97;;;21.10;85.10;;;;;;5070240;28;20036;-64
2022/06/29 06:00:10;;;;;;;5.63;3.92;;;21.10;85.40;;;;;;5067894;28;20040;-64
2022/06/29 06:02:39;;;;;;;5.35;3.58;;;21.10;85.50;;;;;;5069291;28;20069;-63
2022/06/29 06:05:05;;;;;;;8.50;3.55;;;21.20;85.90;;;;;;5066264;28;20036;-64
2022/06/29 06:07:37;;;;;;;12.55;3.38;;;21.10;85.90;;;;;;5070460;28;20032;-67
2022/06/29 06:10:03;;;;;;;4.82;3.10;;;21.20;86.10;;;;;;5067784;28;20082;-63
2022/06/29 06:12:30;;;;;;;5.55;3.70;;;21.20;85.70;;;;;;5071510;28;20048;-64
2022/06/29 06:14:59;;;;;;;6.85;3.65;;;21.30;85.50;;;;;;5071752;28;20047;-64
2022/06/29 06:17:26;;;;;;;9.48;3.20;;;21.40;85.10;;;;;;5070731;28;20024;-64
2022/06/29 06:19:53;;;;;;;5.60;3.08;;;21.40;84.90;;;;;;5071696;28;20036;-64
2022/06/29 06:22:19;;;;;;;7.20;3.25;;;21.40;84.50;;;;;;5071494;28;20040;-63
2022/06/29 06:24:46;;;;;;;8.07;3.25;;;21.40;84.50;;;;;;5070679;28;20031;-64
2022/06/29 06:27:11;;;;;;;5.30;2.80;;;21.40;84.20;;;;;;5069719;28;20051;-64
2022/06/29 06:29:37;;;;;;;6.93;3.25;;;21.50;84.10;;;;;;5068651;28;20483;-64
2022/06/29 06:32:04;;;;;;;10.25;3.03;;;21.50;84.30;;;;;;5065992;28;20086;-64
2022/06/29 06:34:30;;;;;;;4.55;2.65;;;21.50;84.10;;;;;;5067027;28;20040;-64
2022/06/29 06:36:56;;;;;;;5.32;2.60;;;21.50;84.00;;;;;;5070798;28;20082;-64
2022/06/29 06:39:22;;;;;;;4.53;2.88;;;21.60;83.60;;;;;;5069693;28;20059;-64
2022/06/29 06:41:48;;;;;;;6.35;3.03;;;21.60;83.50;;;;;;5066681;28;20102;-64
2022/06/29 06:44:16;;;;;;;14.40;3.20;;;21.70;83.50;;;;;;5069558;28;20038;-64
2022/06/29 06:46:46;;;;;;;13.10;2.65;;;21.70;83.20;;;;;;5068565;28;20028;-64
2022/06/29 06:49:12;;;;;;;5.75;2.83;;;21.80;83.20;;;;;;5069911;28;20040;-64
2022/06/29 06:51:38;;;;;;;5.18;2.97;;;21.70;83.40;;;;;;5065103;28;20040;-64
2022/06/29 06:54:04;;;;;;;3.72;2.30;;;21.80;83.00;;;;;;5067738;28;20033;-64
2022/06/29 06:56:29;;;;;;;4.47;2.60;;;21.80;82.60;;;;;;5066087;28;20111;-63
2022/06/29 06:58:55;;;;;;;7.82;2.90;;;21.80;82.50;;;;;;5043321;28;20036;-64
2022/06/29 07:01:21;;;;;;;6.75;2.60;;;21.90;82.60;;;;;;5059896;28;20041;-64
2022/06/29 07:03:47;;;;;;;4.80;2.45;;;21.90;82.50;;;;;;5059007;28;20400;-64
2022/06/29 07:06:13;;;;;;;7.57;2.75;;;22.00;82.60;;;;;;5057492;28;20051;-64
2022/06/29 07:08:39;;;;;;;4.03;2.67;;;22.00;82.50;;;;;;5059261;28;20035;-64
2022/06/29 07:11:08;;;;;;;5.18;2.22;;;22.00;82.30;;;;;;5062959;28;20464;-64
2022/06/29 07:13:33;;;;;;;7.00;2.47;;;22.10;83.40;;;;;;5062098;28;20115;-64
2022/06/29 07:16:04;;;;;;;6.95;3.13;;;22.10;82.60;;;;;;5066282;28;20441;-64
2022/06/29 07:18:30;;;;;;;4.60;2.50;;;22.10;82.80;;;;;;5063915;28;20036;-64
2022/06/29 07:20:56;;;;;;;4.00;2.22;;;22.10;82.90;;;;;;5062590;28;20383;-64
2022/06/29 07:23:22;;;;;;;4.40;2.50;;;22.20;82.80;;;;;;5064154;28;20431;-64
2022/06/29 07:25:48;;;;;;;5.65;2.60;;;22.20;82.80;;;;;;5061057;28;20025;-64
2022/06/29 07:28:13;;;;;;;6.82;3.08;;;22.20;82.30;;;;;;5059145;28;20039;-64
2022/06/29 07:30:39;;;;;;;9.40;3.35;;;22.30;82.50;;;;;;5066413;28;20017;-64
2022/06/29 07:33:05;;;;;;;6.57;2.60;;;22.30;82.30;;;;;;5063986;28;20025;-64
2022/06/29 07:35:31;;;;;;;3.30;2.45;;;22.40;82.20;;;;;;5057549;28;20165;-64
2022/06/29 07:37:57;;;;;;;5.50;2.33;;;22.40;82.50;;;;;;5060054;28;20467;-64
2022/06/29 07:40:26;;;;;;;9.95;2.33;;;22.50;82.70;;;;;;5065981;28;20025;-64
2022/06/29 07:42:51;;;;;;;4.30;2.25;;;22.50;82.80;;;;;;5065531;28;20043;-64
2022/06/29 07:45:17;;;;;;;4.75;2.45;;;22.50;82.30;;;;;;5062041;28;20025;-64
2022/06/29 07:47:44;;;;;;;3.85;2.08;;;22.60;81.80;;;;;;5062590;28;20055;-64
2022/06/29 07:50:13;;;;;;;4.57;2.10;;;22.60;81.60;;;;;;5062731;28;20056;-63
2022/06/29 07:52:41;;;;;;;7.63;2.03;;;22.60;81.60;;;;;;5066636;28;20066;-66
2022/06/29 07:55:08;;;;;;;4.80;2.15;;;22.70;81.00;;;;;;5065834;28;20028;-66
2022/06/29 07:57:34;;;;;;;5.85;2.55;;;22.80;81.70;;;;;;5064931;28;20133;-66
2022/06/29 08:00:00;;;;;;;7.22;1.80;;;22.80;81.70;;;;;;5063822;28;20729;-66
2022/06/29 08:02:28;;;;;;;3.75;1.83;;;22.80;81.50;;;;;;5062348;28;20102;-66
2022/06/29 08:04:54;;;;;;;4.63;1.92;;;22.90;80.90;;;;;;5061670;28;20064;-66
2022/06/29 08:07:20;;;;;;;3.10;1.73;;;23.00;81.10;;;;;;5063227;28;20480;-66
2022/06/29 08:09:46;;;;;;;4.75;2.00;;;23.10;80.60;;;;;;5061469;28;20035;-66
2022/06/29 08:12:11;;;;;;;6.05;2.00;;;23.10;80.10;;;;;;5060716;28;20032;-66
2022/06/29 08:14:37;;;;;;;9.60;1.95;;;23.20;80.60;;;;;;5065124;28;20033;-66
2022/06/29 08:17:03;;;;;;;2.42;1.80;;;23.20;80.80;;;;;;5058337;28;20035;-67
2022/06/29 08:19:29;;;;;;;9.57;2.03;;;23.20;80.80;;;;;;5067161;28;20119;-66
2022/06/29 08:21:54;;;;;;;8.98;2.15;;;23.30;80.30;;;;;;5069438;28;20123;-66
2022/06/29 08:24:20;;;;;;;4.18;2.03;;;23.30;79.90;;;;;;5065605;28;20287;-66
2022/06/29 08:26:46;;;;;;;4.05;1.90;;;23.30;80.10;;;;;;5063976;28;20555;-66
2022/06/29 08:29:12;;;;;;;2.05;1.70;;;23.40;79.50;;;;;;5067282;28;20480;-66
2022/06/29 08:31:37;;;;;;;3.33;1.60;;;23.50;80.10;;;;;;5067457;28;20041;-66
2022/06/29 08:34:06;;;;;;;4.05;1.90;;;23.50;80.60;;;;;;5062797;28;20023;-66
2022/06/29 08:36:32;;;;;;;3.75;1.85;;;23.60;80.70;;;;;;5067644;28;20041;-66
2022/06/29 08:38:58;;;;;;;3.65;1.75;;;23.60;81.30;;;;;;5069538;28;20124;-66
2022/06/29 08:41:25;;;;;;;2.85;1.88;;;23.70;81.30;;;;;;5067586;28;20380;-67
2022/06/29 08:43:51;;;;;;;6.80;2.20;;;23.70;81.10;;;;;;5063248;28;20086;-66
2022/06/29 08:46:17;;;;;;;3.70;2.00;;;23.80;80.80;;;;;;5068379;28;20476;-66
2022/06/29 08:48:43;;;;;;;8.88;2.17;;;23.80;80.80;;;;;;5068126;28;20039;-66
2022/06/29 08:51:11;;;;;;;8.05;2.00;;;23.90;80.40;;;;;;5070044;28;20050;-65
2022/06/29 08:53:37;;;;;;;3.45;1.73;;;23.90;80.20;;;;;;5065598;28;20036;-64
2022/06/29 08:56:04;;;;;;;3.15;1.67;;;23.90;80.40;;;;;;5071235;28;20033;-64
2022/06/29 08:58:30;;;;;;;2.03;1.58;;;24.00;80.00;;;;;;5067834;28;20107;-64
2022/06/29 09:00:56;;;;;;;3.85;2.03;;;24.00;80.20;;;;;;5060204;28;20043;-65
2022/06/29 09:03:26;;;;;;;8.50;1.98;;;24.10;79.40;;;;;;5062318;28;20051;-64
2022/06/29 09:06:01;;;;;;;4.63;2.03;;;24.20;79.60;;;;;;5068672;28;20135;-64
2022/06/29 09:08:27;;;;;;;3.67;1.90;;;24.20;78.90;;;;;;5065499;28;20060;-64
2022/06/29 09:10:52;;;;;;;2.97;2.00;;;24.20;79.60;;;;;;5071936;28;20055;-64
2022/06/29 09:13:23;;;;;;;2.97;2.03;;;24.30;79.50;;;;;;5068245;28;20115;-64
2022/06/29 09:15:57;;;;;;;3.13;1.80;;;24.30;79.50;;;;;;5072380;28;20033;-64
2022/06/29 09:18:26;;;;;;;7.10;2.10;;;24.40;77.90;;;;;;5068421;28;20103;-64
2022/06/29 09:20:55;;;;;;;8.77;1.83;;;24.50;77.70;;;;;;5070722;28;20051;-64
2022/06/29 09:23:20;;;;;;;3.15;1.35;;;24.50;76.90;;;;;;5061713;28;20028;-65
2022/06/29 09:25:46;;;;;;;3.30;1.90;;;24.60;76.50;;;;;;5070054;28;20021;-65
2022/06/29 09:28:22;;;;;;;9.20;2.15;;;24.60;76.70;;;;;;5071184;28;20729;-64
2022/06/29 09:30:48;;;;;;;7.78;1.95;;;24.70;77.00;;;;;;5071128;28;20028;-64
2022/06/29 09:33:14;;;;;;;4.07;2.35;;;24.70;77.90;;;;;;5071523;28;20388;-64
2022/06/29 09:35:41;;;;;;;3.55;2.00;;;24.80;77.60;;;;;;5070524;28;20033;-65
2022/06/29 09:38:26;;;;;;;3.78;2.17;;;24.90;77.60;;;;;;5068617;28;20031;-64
2022/06/29 09:41:02;;;;;;;3.63;1.80;;;24.90;77.20;;;;;;5067806;28;20480;-64
2022/06/29 09:43:30;;;;;;;5.13;1.70;;;24.90;77.10;;;;;;5067851;28;20040;-65
2022/06/29 09:45:56;;;;;;;2.63;1.70;;;25.00;77.20;;;;;;5058833;28;20054;-65
2022/06/29 09:48:24;;;;;;;5.13;1.90;;;25.00;76.40;;;;;;5063444;28;20051;-65
2022/06/29 09:50:52;;;;;;;5.18;1.88;;;25.10;76.70;;;;;;5057013;28;20094;-65
2022/06/29 09:53:37;;;;;;;4.60;2.05;;;25.20;76.30;;;;;;5071385;28;20029;-65
2022/06/29 09:56:06;;;;;;;2.95;1.70;;;25.20;75.90;;;;;;5068275;28;20024;-65
2022/06/29 09:58:42;;;;;;;5.40;1.70;;;25.30;75.50;;;;;;5070907;28;20044;-64
2022/06/29 10:03:55;;;;;;;3.15;1.70;;;25.40;74.90;;;;;;5071520;28;20037;-65
2022/06/29 10:06:22;;;;;;;3.90;1.83;;;25.40;73.90;;;;;;5069141;28;20120;-65
2022/06/29 10:08:48;;;;;;;3.75;1.98;;;25.50;73.50;;;;;;5071449;28;20079;-64
2022/06/29 10:14:44;;;;;;;4.40;1.80;;;25.60;74.90;;;;;;5065786;28;20032;-66
2022/06/29 10:17:45;;;;;;;3.03;1.80;;;25.60;75.00;;;;;;5064489;28;20039;-66
2022/06/29 10:20:42;;;;;;;2.65;1.60;;;25.70;75.20;;;;;;5063911;28;20043;-66
2022/06/29 10:23:08;;;;;;;4.13;1.70;;;25.70;74.90;;;;;;5063894;28;20047;-65
2022/06/29 10:25:37;;;;;;;3.85;1.58;;;25.80;75.80;;;;;;5069750;28;20089;-66
2022/06/29 10:28:16;;;;;;;3.08;1.60;;;25.80;74.60;;;;;;5070293;28;20043;-65
2022/06/29 10:30:44;;;;;;;3.80;1.80;;;25.80;74.70;;;;;;5067659;28;20073;-66
2022/06/29 10:33:35;;;;;;;7.85;1.90;;;25.90;74.80;;;;;;5064762;28;20472;-65
2022/06/29 10:36:06;;;;;;;7.60;1.95;;;26.00;74.20;;;;;;5060591;28;20520;-65
2022/06/29 10:38:58;;;;;;;4.53;2.38;;;26.00;74.40;;;;;;5065960;28;20082;-65
2022/06/29 10:44:09;;;;;;;3.67;1.77;;;26.10;74.20;;;;;;5062350;28;20043;-65
2022/06/29 10:47:04;;;;;;;6.15;1.77;;;26.10;74.30;;;;;;5066028;28;20215;-65
2022/06/29 10:49:30;;;;;;;5.25;1.80;;;26.20;73.90;;;;;;5053095;28;20434;-65
2022/06/29 10:51:57;;;;;;;3.03;2.05;;;26.20;74.50;;;;;;5067826;28;20020;-66
2022/06/29 10:54:29;;;;;;;7.15;1.95;;;26.30;73.70;;;;;;5068667;28;20078;-65
2022/06/29 10:56:56;;;;;;;3.43;1.60;;;26.40;72.70;;;;;;5070608;28;20028;-65
2022/06/29 10:59:34;;;;;;;3.83;1.90;;;26.50;72.60;;;;;;5060883;28;20040;-65
2022/06/29 11:02:26;;;;;;;2.20;1.60;;;26.50;72.10;;;;;;5060829;28;20041;-65
2022/06/29 11:04:52;;;;;;;1.83;1.58;;;26.50;71.70;;;;;;5053226;28;20029;-65
2022/06/29 11:12:54;;;;;;;1.85;1.60;;;26.60;71.80;;;;;;5065499;28;20033;-64
2022/06/29 11:15:41;;;;;;;4.38;1.70;;;26.60;72.00;;;;;;5057781;28;20138;-64
2022/06/29 11:18:11;;;;;;;7.25;1.80;;;26.60;70.70;;;;;;5062176;28;20024;-64
2022/06/29 11:20:38;;;;;;;12.10;1.70;;;26.70;72.80;;;;;;5068322;28;20029;-64
2022/06/29 11:23:10;;;;;;;2.55;1.42;;;26.80;71.20;;;;;;5070588;28;20085;-64
2022/06/29 11:25:38;;;;;;;3.95;1.33;;;26.70;70.10;;;;;;5070530;28;20032;-68
2022/06/29 11:28:05;;;;;;;2.97;1.60;;;26.80;70.70;;;;;;5070126;28;20032;-65
2022/06/29 11:30:30;;;;;;;4.45;1.75;;;26.80;71.30;;;;;;5066857;28;20158;-64
2022/06/29 11:32:56;;;;;;;1.45;1.30;;;26.90;71.00;;;;;;5069912;28;20100;-64
2022/06/29 11:35:25;;;;;;;3.55;1.50;;;26.90;70.30;;;;;;5070430;28;20387;-64
2022/06/29 11:38:01;;;;;;;3.58;1.63;;;26.90;70.60;;;;;;5069933;28;20366;-64
2022/06/29 11:40:57;;;;;;;4.35;1.70;;;27.00;70.40;;;;;;5070671;28;20115;-64
2022/06/29 11:43:23;;;;;;;2.45;1.33;;;27.00;72.20;;;;;;5051654;28;20128;-66
2022/06/29 11:45:56;;;;;;;5.75;1.95;;;27.10;71.40;;;;;;5063953;28;20108;-65
2022/06/29 11:48:23;;;;;;;3.00;1.42;;;27.20;71.00;;;;;;5069176;28;20472;-65
2022/06/29 11:50:53;;;;;;;5.15;1.55;;;27.20;69.90;;;;;;5070211;28;20124;-65
2022/06/29 11:53:44;;;;;;;5.43;1.60;;;27.20;69.90;;;;;;5073974;28;20040;-65
2022/06/29 11:56:13;;;;;;;2.97;1.60;;;27.30;69.80;;;;;;5068781;28;20055;-65
2022/06/29 11:58:44;;;;;;;4.38;1.70;;;27.40;70.60;;;;;;5073176;28;20028;-65
2022/06/29 12:01:12;;;;;;;2.58;1.60;;;27.40;70.20;;;;;;5071406;28;20567;-65
2022/06/29 12:03:39;;;;;;;3.70;1.70;;;27.40;71.20;;;;;;5070677;28;20063;-65
2022/06/29 12:06:05;;;;;;;2.65;1.55;;;27.50;71.30;;;;;;5071129;28;20411;-65
2022/06/29 12:08:31;;;;;;;15.18;1.80;;;27.60;69.90;;;;;;5070784;28;20029;-65
2022/06/29 12:10:57;;;;;;;3.33;1.60;;;27.60;68.90;;;;;;5071648;28;20090;-65
2022/06/29 12:13:24;;;;;;;2.20;1.60;;;27.60;67.90;;;;;;5069536;28;20429;-65
2022/06/29 12:15:51;;;;;;;3.17;1.73;;;27.70;68.30;;;;;;5067803;28;20545;-65
2022/06/29 12:18:16;;;;;;;4.40;1.77;;;27.70;68.00;;;;;;5070095;28;20024;-65
2022/06/29 12:20:47;;;;;;;4.20;1.63;;;27.80;68.50;;;;;;5070052;28;20082;-65
2022/06/29 12:23:12;;;;;;;3.20;2.42;;;27.80;67.50;;;;;;5067904;28;20396;-65
2022/06/29 12:25:38;;;;;;;5.43;2.20;;;27.90;66.90;;;;;;5070858;28;20035;-65
2022/06/29 12:28:04;;;;;;;4.13;2.20;;;27.90;67.30;;;;;;5071496;28;20032;-65
2022/06/29 12:30:30;;;;;;;2.58;1.65;;;27.90;68.30;;;;;;5070463;28;20032;-65
2022/06/29 12:32:56;;;;;;;4.22;1.70;;;28.00;69.90;;;;;;5071304;28;20171;-65
2022/06/29 12:35:22;;;;;;;4.28;1.60;;;28.00;68.10;;;;;;5072245;28;21320;-65
2022/06/29 12:37:48;;;;;;;6.53;2.58;;;28.00;67.40;;;;;;5070982;28;20464;-65
2022/06/29 12:40:14;;;;;;;5.85;1.90;;;28.00;66.00;;;;;;5070407;28;20085;-65
2022/06/29 12:42:40;;;;;;;19.55;2.03;;;28.10;66.40;;;;;;5067081;28;20051;-65
2022/06/29 12:45:07;;;;;;;3.63;1.63;;;28.10;66.40;;;;;;5066453;28;20024;-65
2022/06/29 12:47:33;;;;;;;2.65;1.70;;;28.10;66.80;;;;;;5068252;28;20509;-65
2022/06/29 12:50:01;;;;;;;4.32;1.65;;;28.20;67.10;;;;;;5068308;28;20025;-65
2022/06/29 12:52:27;;;;;;;3.08;1.88;;;28.20;67.40;;;;;;5068302;28;20056;-65
2022/06/29 12:54:52;;;;;;;3.95;1.92;;;28.20;67.30;;;;;;5070319;28;20593;-66
2022/06/29 12:57:18;;;;;;;2.65;1.77;;;28.30;68.60;;;;;;5065466;28;20036;-66
2022/06/29 12:59:44;;;;;;;6.25;2.03;;;28.30;67.40;;;;;;5066428;28;20047;-66
2022/06/29 13:02:10;;;;;;;6.38;1.88;;;28.40;67.20;;;;;;5067229;28;20064;-67
2022/06/29 13:04:36;;;;;;;5.63;2.00;;;28.40;68.10;;;;;;5069602;28;20025;-66